createdAt,value
2018-03-16T00:01:14.909Z,7.20
2018-03-16T00:03:43.039Z,7.20
2018-03-16T00:06:11.915Z,7.20
2018-03-16T00:08:40.051Z,7.20
2018-03-16T00:11:08.167Z,7.10
2018-03-16T00:13:37.083Z,7.10
2018-03-16T00:16:05.190Z,7.10
2018-03-16T00:18:33.305Z,7.10
2018-03-16T00:21:02.210Z,7.10
2018-03-16T00:23:30.339Z,7.10
2018-03-16T00:25:58.447Z,7.10
2018-03-16T00:28:27.322Z,7.00
2018-03-16T00:30:56.263Z,7.00
2018-03-16T00:33:24.391Z,7.00
2018-03-16T00:35:53.289Z,7.00
2018-03-16T00:38:22.163Z,7.00
2018-03-16T00:40:50.364Z,6.90
2018-03-16T00:43:19.250Z,7.00
2018-03-16T00:45:48.149Z,6.90
2018-03-16T00:48:17.030Z,6.90
2018-03-16T00:50:45.167Z,6.90
2018-03-16T00:53:13.300Z,6.90
2018-03-16T00:55:41.410Z,6.90
2018-03-16T00:58:09.652Z,6.90
2018-03-16T01:00:37.789Z,6.90
2018-03-16T01:03:06.687Z,6.80
2018-03-16T01:05:35.582Z,6.80
2018-03-16T01:08:04.460Z,6.90
2018-03-16T01:10:33.348Z,6.80
2018-03-16T01:13:02.248Z,6.80
2018-03-16T01:15:31.118Z,6.90
2018-03-16T01:18:00.013Z,6.80
2018-03-16T01:23:23.414Z,6.80
2018-03-16T01:25:51.579Z,6.80
2018-03-16T01:28:20.450Z,6.80
2018-03-16T01:30:48.583Z,6.80
2018-03-16T01:33:16.724Z,6.90
2018-03-16T01:35:44.840Z,6.90
2018-03-16T01:38:13.012Z,6.90
2018-03-16T01:40:41.844Z,6.90
2018-03-16T01:43:10.737Z,6.90
2018-03-16T01:45:39.618Z,6.90
2018-03-16T01:48:07.732Z,6.90
2018-03-16T01:50:35.872Z,6.90
2018-03-16T01:53:16.607Z,6.90
2018-03-16T01:55:44.717Z,6.90
2018-03-16T01:58:13.626Z,7.00
2018-03-16T02:00:42.484Z,7.00
2018-03-16T02:03:11.402Z,7.00
2018-03-16T02:05:39.511Z,7.00
2018-03-16T02:08:07.620Z,7.00
2018-03-16T02:10:36.499Z,7.10
2018-03-16T02:13:04.648Z,7.00
2018-03-16T02:15:32.759Z,7.10
2018-03-16T02:18:01.647Z,7.10
2018-03-16T02:20:29.775Z,7.10
2018-03-16T02:22:57.895Z,7.20
2018-03-16T02:25:26.772Z,7.20
2018-03-16T02:27:55.643Z,7.20
2018-03-16T02:30:23.860Z,7.20
2018-03-16T02:32:52.756Z,7.30
2018-03-16T02:35:20.940Z,7.30
2018-03-16T02:37:49.044Z,7.30
2018-03-16T02:40:17.273Z,7.30
2018-03-16T02:42:46.176Z,7.40
2018-03-16T02:45:14.292Z,7.30
2018-03-16T02:47:42.413Z,7.40
2018-03-16T02:50:11.294Z,7.40
2018-03-16T02:52:40.176Z,7.50
2018-03-16T02:55:09.088Z,7.50
2018-03-16T02:57:37.193Z,7.50
2018-03-16T03:00:05.332Z,7.50
2018-03-16T03:02:33.497Z,7.50
2018-03-16T03:05:02.369Z,7.50
2018-03-16T03:07:31.271Z,7.60
2018-03-16T03:10:00.154Z,7.50
2018-03-16T03:12:29.047Z,7.50
2018-03-16T03:14:57.927Z,7.60
2018-03-16T03:17:26.872Z,7.60
2018-03-16T03:19:54.985Z,7.60
2018-03-16T03:22:23.887Z,7.60
2018-03-16T03:24:52.797Z,7.60
2018-03-16T03:27:20.917Z,7.60
2018-03-16T03:29:49.031Z,7.60
2018-03-16T03:32:17.161Z,7.70
2018-03-16T03:34:45.276Z,7.70
2018-03-16T03:37:14.167Z,7.70
2018-03-16T03:39:43.070Z,7.70
2018-03-16T03:42:11.203Z,7.70
2018-03-16T03:44:39.334Z,7.70
2018-03-16T03:47:07.453Z,7.80
2018-03-16T03:49:36.371Z,7.80
2018-03-16T03:52:04.530Z,7.80
2018-03-16T03:54:33.431Z,7.80
2018-03-16T03:57:01.538Z,7.80
2018-03-16T03:59:29.656Z,7.90
2018-03-16T04:01:58.548Z,7.90
2018-03-16T04:04:27.445Z,7.90
2018-03-16T04:06:56.314Z,7.90
2018-03-16T04:09:24.433Z,7.90
2018-03-16T04:11:52.580Z,7.90
2018-03-16T04:14:21.493Z,7.90
2018-03-16T04:16:49.596Z,7.90
2018-03-16T04:19:17.737Z,7.90
2018-03-16T04:21:45.850Z,7.90
2018-03-16T04:24:13.978Z,7.90
2018-03-16T04:26:42.856Z,7.80
2018-03-16T04:29:11.744Z,7.80
2018-03-16T04:31:40.745Z,7.80
2018-03-16T04:34:08.867Z,7.80
2018-03-16T04:36:36.970Z,7.80
2018-03-16T04:39:06.666Z,7.80
2018-03-16T04:41:34.792Z,7.80
2018-03-16T04:44:02.940Z,7.80
2018-03-16T04:46:31.052Z,7.90
2018-03-16T04:48:59.160Z,7.90
2018-03-16T04:51:28.050Z,7.90
2018-03-16T04:53:56.247Z,7.80
2018-03-16T04:56:25.123Z,7.90
2018-03-16T04:58:54.004Z,7.80
2018-03-16T05:01:22.908Z,7.80
2018-03-16T05:03:51.799Z,7.80
2018-03-16T05:06:20.672Z,7.80
2018-03-16T05:08:48.804Z,7.80
2018-03-16T05:11:16.952Z,7.90
2018-03-16T05:13:45.078Z,7.90
2018-03-16T05:16:14.734Z,7.90
2018-03-16T05:18:42.848Z,7.90
2018-03-16T05:21:10.972Z,7.90
2018-03-16T05:23:39.124Z,8.00
2018-03-16T05:26:08.007Z,8.00
2018-03-16T05:28:36.104Z,8.00
2018-03-16T05:31:04.236Z,8.00
2018-03-16T05:33:32.394Z,8.10
2018-03-16T05:36:00.503Z,8.10
2018-03-16T05:38:29.373Z,8.20
2018-03-16T05:40:57.496Z,8.20
2018-03-16T05:43:25.651Z,8.20
2018-03-16T05:45:54.551Z,8.20
2018-03-16T05:48:22.726Z,8.20
2018-03-16T05:50:50.856Z,8.30
2018-03-16T05:53:18.986Z,8.30
2018-03-16T05:55:47.095Z,8.30
2018-03-16T05:58:15.229Z,8.40
2018-03-16T06:00:43.401Z,8.40
2018-03-16T06:03:11.491Z,8.40
2018-03-16T06:05:39.644Z,8.50
2018-03-16T06:08:07.785Z,8.50
2018-03-16T06:10:36.665Z,8.50
2018-03-16T06:13:05.563Z,8.50
2018-03-16T06:15:34.485Z,8.60
2018-03-16T06:18:02.611Z,8.50
2018-03-16T06:20:30.723Z,8.60
2018-03-16T06:22:58.914Z,8.60
2018-03-16T06:25:27.027Z,8.60
2018-03-16T06:27:55.127Z,8.70
2018-03-16T06:30:24.023Z,8.70
2018-03-16T06:32:52.924Z,8.70
2018-03-16T06:35:21.075Z,8.70
2018-03-16T06:37:49.964Z,8.80
2018-03-16T06:40:18.843Z,8.80
2018-03-16T06:42:47.751Z,8.90
2018-03-16T06:45:16.682Z,8.90
2018-03-16T06:47:44.775Z,8.90
2018-03-16T06:50:13.033Z,8.90
2018-03-16T06:52:41.197Z,9.00
2018-03-16T06:55:09.444Z,9.00
2018-03-16T06:57:38.323Z,9.00
2018-03-16T07:00:07.327Z,9.10
2018-03-16T07:02:36.233Z,9.10
2018-03-16T07:05:04.419Z,9.10
2018-03-16T07:07:32.533Z,9.10
2018-03-16T07:10:00.677Z,9.10
2018-03-16T07:12:28.807Z,9.20
2018-03-16T07:14:56.982Z,9.20
2018-03-16T07:17:25.094Z,9.20
2018-03-16T07:19:53.222Z,9.20
2018-03-16T07:22:22.101Z,9.30
2018-03-16T07:24:51.004Z,9.30
2018-03-16T07:27:19.883Z,9.40
2018-03-16T07:29:48.775Z,9.40
2018-03-16T07:32:17.653Z,9.40
2018-03-16T07:34:46.597Z,9.50
2018-03-16T07:37:14.759Z,9.50
2018-03-16T07:39:42.839Z,9.50
2018-03-16T07:42:10.961Z,9.60
2018-03-16T07:44:39.081Z,9.60
2018-03-16T07:47:07.230Z,9.70
2018-03-16T07:49:36.120Z,9.80
2018-03-16T07:52:04.289Z,9.80
2018-03-16T07:54:33.176Z,9.90
2018-03-16T07:57:01.354Z,9.90
2018-03-16T07:59:30.270Z,10.00
2018-03-16T08:01:58.426Z,10.00
2018-03-16T08:04:26.588Z,10.00
2018-03-16T08:06:55.476Z,10.20
2018-03-16T08:09:24.364Z,10.20
2018-03-16T08:11:53.277Z,10.20
2018-03-16T08:14:22.152Z,10.30
2018-03-16T08:16:51.032Z,10.30
2018-03-16T08:19:19.910Z,10.40
2018-03-16T08:21:48.048Z,10.40
2018-03-16T08:24:16.180Z,10.40
2018-03-16T08:26:44.352Z,10.50
2018-03-16T08:29:13.240Z,10.60
2018-03-16T08:31:42.154Z,10.60
2018-03-16T08:34:10.282Z,10.60
2018-03-16T08:36:39.184Z,10.70
2018-03-16T08:39:08.106Z,10.90
2018-03-16T08:41:36.222Z,10.80
2018-03-16T08:44:04.362Z,10.90
2018-03-16T08:46:32.492Z,11.00
2018-03-16T08:49:01.384Z,11.10
2018-03-16T08:51:29.496Z,11.10
2018-03-16T08:53:57.747Z,11.10
2018-03-16T08:56:25.928Z,11.20
2018-03-16T08:58:54.056Z,11.20
2018-03-16T09:01:22.172Z,11.20
2018-03-16T09:03:50.308Z,11.20
2018-03-16T09:06:18.460Z,11.20
2018-03-16T09:08:46.596Z,11.20
2018-03-16T09:11:14.747Z,11.20
2018-03-16T09:13:43.654Z,11.30
2018-03-16T09:16:11.776Z,11.30
2018-03-16T09:18:39.892Z,11.30
2018-03-16T09:21:08.055Z,11.40
2018-03-16T09:23:36.953Z,11.40
2018-03-16T09:26:05.095Z,11.40
2018-03-16T09:28:33.219Z,11.40
2018-03-16T09:31:02.192Z,11.50
2018-03-16T09:33:30.328Z,11.50
2018-03-16T09:35:58.536Z,11.50
2018-03-16T09:38:26.687Z,11.50
2018-03-16T09:40:54.784Z,11.50
2018-03-16T09:43:22.918Z,11.60
2018-03-16T09:45:51.087Z,11.60
2018-03-16T09:48:19.207Z,11.60
2018-03-16T09:50:47.336Z,11.60
2018-03-16T09:53:28.753Z,11.60
2018-03-16T09:55:57.674Z,11.70
2018-03-16T09:58:25.813Z,11.70
2018-03-16T10:00:53.948Z,11.80
2018-03-16T10:03:22.080Z,11.80
2018-03-16T10:05:50.672Z,11.90
2018-03-16T10:08:18.835Z,11.90
2018-03-16T10:10:46.967Z,12.00
2018-03-16T10:13:15.089Z,12.00
2018-03-16T10:15:43.251Z,12.10
2018-03-16T10:18:11.387Z,12.20
2018-03-16T10:20:40.272Z,12.20
2018-03-16T10:23:09.923Z,12.30
2018-03-16T10:25:38.119Z,12.30
2018-03-16T10:28:06.221Z,12.30
2018-03-16T10:30:34.491Z,12.40
2018-03-16T10:33:02.643Z,12.40
2018-03-16T10:35:30.774Z,12.40
2018-03-16T10:37:58.950Z,12.40
2018-03-16T10:40:27.075Z,12.40
2018-03-16T10:42:55.211Z,12.50
2018-03-16T10:45:23.395Z,12.50
2018-03-16T10:47:51.549Z,12.60
2018-03-16T10:50:19.661Z,12.60
2018-03-16T10:52:47.824Z,12.60
2018-03-16T10:55:15.947Z,12.60
2018-03-16T10:57:44.834Z,12.60
2018-03-16T11:00:14.187Z,12.70
2018-03-16T11:02:48.058Z,12.70
2018-03-16T11:05:18.223Z,12.70
2018-03-16T11:07:50.345Z,12.70
2018-03-16T11:10:18.500Z,12.80
2018-03-16T11:12:47.416Z,13.00
2018-03-16T11:15:15.540Z,13.00
2018-03-16T11:17:43.673Z,13.00
2018-03-16T11:20:11.822Z,13.00
2018-03-16T11:22:39.948Z,12.90
2018-03-16T11:25:08.179Z,12.90
2018-03-16T11:27:36.296Z,12.90
2018-03-16T11:30:04.432Z,12.90
2018-03-16T11:32:32.628Z,12.90
2018-03-16T11:35:00.799Z,13.00
2018-03-16T11:37:28.895Z,13.10
2018-03-16T11:39:57.025Z,13.20
2018-03-16T11:42:25.155Z,13.30
2018-03-16T11:44:54.065Z,13.40
2018-03-16T11:47:22.961Z,13.50
2018-03-16T11:49:51.850Z,13.60
2018-03-16T11:52:20.748Z,13.60
2018-03-16T11:54:48.915Z,13.60
2018-03-16T11:57:17.818Z,13.70
2018-03-16T11:59:45.939Z,13.70
2018-03-16T12:02:15.580Z,13.80
2018-03-16T12:04:44.484Z,13.90
2018-03-16T12:07:12.620Z,13.90
2018-03-16T12:09:40.722Z,14.10
2018-03-16T12:12:09.722Z,14.20
2018-03-16T12:14:37.842Z,14.20
2018-03-16T12:17:05.978Z,14.20
2018-03-16T12:19:34.109Z,14.30
2018-03-16T12:22:03.736Z,14.50
2018-03-16T12:24:31.921Z,14.50
2018-03-16T12:27:00.086Z,14.50
2018-03-16T12:29:28.990Z,14.50
2018-03-16T12:31:57.146Z,14.50
2018-03-16T12:34:26.047Z,14.60
2018-03-16T12:36:54.177Z,14.50
2018-03-16T12:39:22.294Z,14.60
2018-03-16T12:41:50.439Z,14.70
2018-03-16T12:44:18.576Z,14.70
2018-03-16T12:46:46.759Z,14.70
2018-03-16T12:49:14.881Z,14.70
2018-03-16T12:51:43.776Z,14.80
2018-03-16T12:54:12.770Z,14.80
2018-03-16T12:56:41.698Z,14.90
2018-03-16T12:59:09.827Z,14.80
2018-03-16T13:01:37.926Z,14.80
2018-03-16T13:04:06.087Z,14.80
2018-03-16T13:06:34.219Z,14.70
2018-03-16T13:09:03.833Z,14.50
2018-03-16T13:11:32.712Z,14.50
2018-03-16T13:14:02.443Z,14.40
2018-03-16T13:16:30.569Z,14.40
2018-03-16T13:18:58.682Z,14.30
2018-03-16T13:21:26.788Z,14.20
2018-03-16T13:23:54.911Z,14.10
2018-03-16T13:26:24.544Z,13.80
2018-03-16T13:28:53.456Z,13.80
2018-03-16T13:31:22.336Z,13.70
2018-03-16T13:33:50.469Z,13.60
2018-03-16T13:36:18.625Z,13.60
2018-03-16T13:38:48.287Z,13.40
2018-03-16T13:41:16.413Z,13.50
2018-03-16T13:43:44.643Z,13.50
2018-03-16T13:46:12.811Z,13.40
2018-03-16T13:48:41.696Z,13.40
2018-03-16T13:51:10.655Z,13.40
2018-03-16T13:53:38.800Z,13.40
2018-03-16T13:56:06.931Z,13.40
2018-03-16T13:58:35.853Z,13.50
2018-03-16T14:01:03.971Z,13.50
2018-03-16T14:03:32.885Z,13.70
2018-03-16T14:06:01.801Z,13.80
2018-03-16T14:08:29.927Z,13.80
2018-03-16T14:10:58.811Z,13.90
2018-03-16T14:13:27.752Z,14.00
2018-03-16T14:15:55.883Z,13.90
2018-03-16T14:18:24.771Z,14.10
2018-03-16T14:20:53.655Z,14.20
2018-03-16T14:23:23.297Z,14.30
2018-03-16T14:25:51.427Z,14.30
2018-03-16T14:28:19.572Z,14.40
2018-03-16T14:30:47.699Z,14.40
2018-03-16T14:33:16.622Z,14.40
2018-03-16T14:35:44.768Z,14.40
2018-03-16T14:38:13.636Z,14.60
2018-03-16T14:40:41.846Z,14.60
2018-03-16T14:43:10.771Z,14.70
2018-03-16T14:45:38.947Z,14.60
2018-03-16T14:48:07.053Z,14.70
2018-03-16T14:50:35.205Z,14.60
2018-03-16T14:53:03.347Z,14.60
2018-03-16T14:55:31.468Z,14.70
2018-03-16T14:57:59.576Z,14.70
2018-03-16T15:00:27.712Z,14.70
2018-03-16T15:02:57.344Z,14.60
2018-03-16T15:05:26.280Z,14.60
2018-03-16T15:07:54.384Z,14.60
2018-03-16T15:10:24.012Z,14.60
2018-03-16T15:12:52.984Z,14.60
2018-03-16T15:15:21.090Z,14.60
2018-03-16T15:17:49.995Z,14.60
2018-03-16T15:20:18.972Z,14.50
2018-03-16T15:22:47.104Z,14.50
2018-03-16T15:25:15.240Z,14.50
2018-03-16T15:27:43.396Z,14.50
2018-03-16T15:30:11.524Z,14.60
2018-03-16T15:32:39.634Z,14.50
2018-03-16T15:35:07.804Z,14.40
2018-03-16T15:37:36.704Z,14.10
2018-03-16T15:40:04.820Z,14.10
2018-03-16T15:42:33.052Z,14.00
2018-03-16T15:45:01.176Z,14.00
2018-03-16T15:47:30.336Z,13.80
2018-03-16T15:49:58.506Z,13.80
2018-03-16T15:52:27.344Z,13.70
2018-03-16T15:54:57.097Z,13.60
2018-03-16T15:57:25.243Z,13.60
2018-03-16T15:59:54.402Z,13.50
2018-03-16T16:02:22.539Z,13.50
2018-03-16T16:04:50.722Z,13.50
2018-03-16T16:07:18.911Z,13.50
2018-03-16T16:09:47.060Z,13.40
2018-03-16T16:12:15.149Z,13.30
2018-03-16T16:14:43.268Z,13.20
2018-03-16T16:17:11.589Z,13.20
2018-03-16T16:19:39.722Z,13.10
2018-03-16T16:22:07.930Z,13.10
2018-03-16T16:24:36.043Z,13.00
2018-03-16T16:27:04.272Z,12.90
2018-03-16T16:29:32.403Z,12.90
2018-03-16T16:32:00.633Z,12.80
2018-03-16T16:34:28.862Z,12.70
2018-03-16T16:36:56.931Z,12.60
2018-03-16T16:39:25.075Z,12.50
2018-03-16T16:41:53.239Z,12.50
2018-03-16T16:44:21.342Z,12.50
2018-03-16T16:46:49.503Z,12.50
2018-03-16T16:49:17.639Z,12.40
2018-03-16T16:51:45.835Z,12.40
2018-03-16T16:54:13.983Z,12.40
2018-03-16T16:56:42.153Z,12.30
2018-03-16T16:59:10.271Z,12.20
2018-03-16T17:01:38.495Z,12.10
2018-03-16T17:04:06.635Z,12.00
2018-03-16T17:06:34.775Z,11.90
2018-03-16T17:09:02.899Z,11.90
2018-03-16T17:11:31.023Z,11.80
2018-03-16T17:13:59.175Z,11.80
2018-03-16T17:16:27.309Z,11.70
2018-03-16T17:18:55.439Z,11.60
2018-03-16T17:21:23.583Z,11.60
2018-03-16T17:23:51.742Z,11.60
2018-03-16T17:26:19.849Z,11.50
2018-03-16T17:28:47.955Z,11.40
2018-03-16T17:31:16.865Z,11.30
2018-03-16T17:33:45.763Z,11.20
2018-03-16T17:36:14.695Z,11.00
2018-03-16T17:38:42.782Z,11.00
2018-03-16T17:41:10.900Z,10.90
2018-03-16T17:43:39.828Z,10.80
2018-03-16T17:46:07.971Z,10.80
2018-03-16T17:48:36.895Z,10.60
2018-03-16T17:51:04.997Z,10.60
2018-03-16T17:53:33.234Z,10.60
2018-03-16T17:56:01.341Z,10.40
2018-03-16T17:58:29.554Z,10.30
2018-03-16T18:00:58.449Z,10.20
2018-03-16T18:03:27.372Z,10.10
2018-03-16T18:05:55.590Z,10.10
2018-03-16T18:08:23.654Z,9.90
2018-03-16T18:10:51.793Z,9.80
2018-03-16T18:13:19.940Z,9.80
2018-03-16T18:15:48.072Z,9.70
2018-03-16T18:18:16.282Z,9.60
2018-03-16T18:20:44.440Z,9.60
2018-03-16T18:23:13.328Z,9.50
2018-03-16T18:25:42.352Z,9.50
2018-03-16T18:28:10.476Z,9.50
2018-03-16T18:30:38.609Z,9.50
2018-03-16T18:33:06.724Z,9.50
2018-03-16T18:35:36.369Z,9.20
2018-03-16T18:38:04.525Z,9.20
2018-03-16T18:40:33.451Z,9.10
2018-03-16T18:43:01.577Z,9.10
2018-03-16T18:45:29.684Z,9.10
2018-03-16T18:47:57.804Z,9.10
2018-03-16T18:50:25.919Z,9.00
2018-03-16T18:52:54.034Z,9.00
2018-03-16T18:55:22.158Z,8.90
2018-03-16T18:57:51.078Z,8.80
2018-03-16T19:00:19.218Z,8.80
2018-03-16T19:02:48.110Z,8.70
2018-03-16T19:05:17.012Z,8.70
2018-03-16T19:07:45.190Z,8.70
2018-03-16T19:10:13.304Z,8.60
2018-03-16T19:12:41.414Z,8.60
2018-03-16T19:15:10.299Z,8.40
2018-03-16T19:17:39.212Z,8.40
2018-03-16T19:20:07.328Z,8.40
2018-03-16T19:22:35.452Z,8.30
2018-03-16T19:25:03.580Z,8.30
2018-03-16T19:27:31.704Z,8.30
2018-03-16T19:29:59.829Z,8.30
2018-03-16T19:32:28.024Z,8.20
2018-03-16T19:34:56.920Z,8.10
2018-03-16T19:37:25.858Z,8.00
2018-03-16T19:39:53.964Z,8.00
2018-03-16T19:42:22.172Z,8.00
2018-03-16T19:44:50.300Z,7.90
2018-03-16T19:47:18.420Z,7.90
2018-03-16T19:49:46.528Z,7.90
2018-03-16T19:52:14.694Z,7.90
2018-03-16T19:54:42.804Z,7.80
2018-03-16T19:57:10.940Z,7.80
2018-03-16T19:59:39.060Z,7.80
2018-03-16T20:02:07.184Z,7.70
2018-03-16T20:04:35.279Z,7.60
2018-03-16T20:07:03.408Z,7.50
2018-03-16T20:09:31.524Z,7.50
2018-03-16T20:11:59.668Z,7.50
2018-03-16T20:14:27.772Z,7.40
2018-03-16T20:16:55.937Z,7.30
2018-03-16T20:19:24.044Z,7.30
2018-03-16T20:21:52.920Z,7.20
2018-03-16T20:24:21.078Z,7.20
2018-03-16T20:26:49.318Z,7.20
2018-03-16T20:29:17.412Z,7.20
2018-03-16T20:31:45.551Z,7.20
2018-03-16T20:34:13.655Z,7.20
2018-03-16T20:36:41.885Z,7.10
2018-03-16T20:39:10.014Z,7.10
2018-03-16T20:41:38.233Z,7.10
2018-03-16T20:44:06.777Z,7.10
2018-03-16T20:46:35.099Z,7.10
2018-03-16T20:49:03.204Z,7.10
2018-03-16T20:51:31.334Z,7.00
2018-03-16T20:54:00.436Z,6.90
2018-03-16T20:56:28.809Z,6.90
2018-03-16T20:58:56.931Z,6.90
2018-03-16T21:01:25.147Z,6.80
2018-03-16T21:03:54.211Z,6.70
2018-03-16T21:06:22.401Z,6.70
2018-03-16T21:08:50.494Z,6.70
2018-03-16T21:11:18.603Z,6.60
2018-03-16T21:13:46.774Z,6.60
2018-03-16T21:16:14.949Z,6.60
2018-03-16T21:18:43.087Z,6.60
2018-03-16T21:21:11.353Z,6.50
2018-03-16T21:23:40.253Z,6.50
2018-03-16T21:26:08.375Z,6.40
2018-03-16T21:28:36.483Z,6.40
2018-03-16T21:31:05.387Z,6.30
2018-03-16T21:33:33.489Z,6.30
2018-03-16T21:36:01.621Z,6.30
2018-03-16T21:38:30.623Z,6.20
2018-03-16T21:40:58.745Z,6.20
2018-03-16T21:43:26.971Z,6.20
2018-03-16T21:45:55.092Z,6.20
2018-03-16T21:48:23.211Z,6.20
2018-03-16T21:50:51.397Z,6.20
2018-03-16T21:53:19.528Z,6.10
2018-03-16T21:55:47.733Z,6.10
2018-03-16T21:58:15.837Z,6.10
2018-03-16T22:00:43.973Z,6.10
2018-03-16T22:03:12.082Z,6.00
2018-03-16T22:05:40.214Z,6.00
2018-03-16T22:08:09.107Z,6.00
2018-03-16T22:10:37.303Z,5.90
2018-03-16T22:13:05.457Z,5.90
2018-03-16T22:15:34.346Z,5.90
2018-03-16T22:18:03.262Z,5.90
2018-03-16T22:20:31.388Z,5.90
2018-03-16T22:22:59.575Z,5.80
2018-03-16T22:25:28.448Z,5.70
2018-03-16T22:27:56.560Z,5.70
2018-03-16T22:30:24.714Z,5.70
2018-03-16T22:32:53.604Z,5.50
2018-03-16T22:35:22.499Z,5.50
2018-03-16T22:37:50.619Z,5.40
2018-03-16T22:40:18.840Z,5.40
2018-03-16T22:42:47.759Z,5.40
2018-03-16T22:45:15.876Z,5.30
2018-03-16T22:47:44.004Z,5.40
2018-03-16T22:50:12.136Z,5.30
2018-03-16T22:52:41.076Z,5.30
2018-03-16T22:55:09.183Z,5.30
2018-03-16T22:57:37.316Z,5.40
2018-03-16T23:00:05.452Z,5.30
2018-03-16T23:02:34.362Z,5.20
2018-03-16T23:05:02.521Z,5.20
2018-03-16T23:07:31.392Z,5.10
2018-03-16T23:09:59.506Z,5.10
2018-03-16T23:12:27.637Z,5.10
2018-03-16T23:14:55.749Z,5.00
2018-03-16T23:17:23.863Z,4.90
2018-03-16T23:19:51.998Z,4.90
2018-03-16T23:22:20.131Z,4.90
2018-03-16T23:24:48.995Z,4.80
2018-03-16T23:27:18.623Z,4.70
2018-03-16T23:29:46.945Z,4.70
2018-03-16T23:32:15.051Z,4.80
2018-03-16T23:34:43.201Z,4.80
2018-03-16T23:37:11.339Z,4.70
2018-03-16T23:39:40.219Z,4.60
2018-03-16T23:42:09.119Z,4.60
2018-03-16T23:44:37.227Z,4.60
2018-03-16T23:47:05.378Z,4.60
2018-03-16T23:49:33.537Z,4.60
2018-03-16T23:52:01.714Z,4.60
2018-03-16T23:54:29.851Z,4.40
2018-03-16T23:56:58.723Z,4.40
2018-03-16T23:59:26.849Z,4.40
